sensor_id;sensor_type;location;lat;lon;timestamp;pressure;altitude;pressure_sealevel;temperature;humidity
49709;BME280;35601;55.902;13.606;2023-04-24T00:00:08;99623.15;;;2.02;77.88
49709;BME280;35601;55.902;13.606;2023-04-24T00:02:32;99619.43;;;1.99;77.67
49709;BME280;35601;55.902;13.606;2023-04-24T00:04:58;99622.05;;;1.79;77.52
49709;BME280;35601;55.902;13.606;2023-04-24T00:07:24;99623.69;;;2.17;77.32
49709;BME280;35601;55.902;13.606;2023-04-24T00:09:49;99621.74;;;2.44;77.13
49709;BME280;35601;55.902;13.606;2023-04-24T00:12:14;99619.84;;;2.27;76.68
49709;BME280;35601;55.902;13.606;2023-04-24T00:14:39;99620.44;;;2.30;76.09
49709;BME280;35601;55.902;13.606;2023-04-24T00:17:05;99623.92;;;2.28;75.37
49709;BME280;35601;55.902;13.606;2023-04-24T00:19:30;99626.69;;;2.18;75.07
49709;BME280;35601;55.902;13.606;2023-04-24T00:21:56;99624.92;;;2.23;75.04
49709;BME280;35601;55.902;13.606;2023-04-24T00:24:21;99628.14;;;2.24;75.07
49709;BME280;35601;55.902;13.606;2023-04-24T00:26:47;99630.05;;;2.17;75.11
49709;BME280;35601;55.902;13.606;2023-04-24T00:29:12;99629.39;;;1.93;74.67
49709;BME280;35601;55.902;13.606;2023-04-24T00:31:37;99622.84;;;2.16;74.07
49709;BME280;35601;55.902;13.606;2023-04-24T00:34:02;99630.33;;;1.89;73.79
49709;BME280;35601;55.902;13.606;2023-04-24T00:36:28;99631.22;;;1.99;74.16
49709;BME280;35601;55.902;13.606;2023-04-24T00:38:53;99632.66;;;0.42;73.80
49709;BME280;35601;55.902;13.606;2023-04-24T00:41:18;99632.74;;;2.11;72.79
49709;BME280;35601;55.902;13.606;2023-04-24T00:43:44;99630.91;;;2.08;72.29
49709;BME280;35601;55.902;13.606;2023-04-24T00:46:09;99628.08;;;2.04;71.93
49709;BME280;35601;55.902;13.606;2023-04-24T00:48:35;99629.08;;;2.19;71.57
49709;BME280;35601;55.902;13.606;2023-04-24T00:51:00;99630.11;;;1.89;71.09
49709;BME280;35601;55.902;13.606;2023-04-24T00:53:25;99630.80;;;2.05;70.64
49709;BME280;35601;55.902;13.606;2023-04-24T00:55:50;99626.01;;;1.72;70.49
49709;BME280;35601;55.902;13.606;2023-04-24T00:58:15;99617.64;;;1.87;70.23
49709;BME280;35601;55.902;13.606;2023-04-24T01:00:41;99611.88;;;1.69;69.99
49709;BME280;35601;55.902;13.606;2023-04-24T01:03:07;99612.44;;;1.82;70.23
49709;BME280;35601;55.902;13.606;2023-04-24T01:05:33;99612.02;;;1.72;71.54
49709;BME280;35601;55.902;13.606;2023-04-24T01:07:58;99608.97;;;1.37;72.24
49709;BME280;35601;55.902;13.606;2023-04-24T01:10:24;99610.09;;;1.28;73.21
49709;BME280;35601;55.902;13.606;2023-04-24T01:12:50;99611.17;;;1.49;73.26
49709;BME280;35601;55.902;13.606;2023-04-24T01:15:14;99615.85;;;1.35;73.85
49709;BME280;35601;55.902;13.606;2023-04-24T01:17:39;99612.85;;;1.28;74.17
49709;BME280;35601;55.902;13.606;2023-04-24T01:20:06;99612.41;;;1.32;74.07
49709;BME280;35601;55.902;13.606;2023-04-24T01:22:31;99607.37;;;1.40;73.78
49709;BME280;35601;55.902;13.606;2023-04-24T01:24:56;99592.39;;;1.39;73.06
49709;BME280;35601;55.902;13.606;2023-04-24T01:27:22;99585.00;;;1.37;72.87
49709;BME280;35601;55.902;13.606;2023-04-24T01:29:47;99579.02;;;1.27;73.85
49709;BME280;35601;55.902;13.606;2023-04-24T01:32:12;99575.47;;;1.24;74.74
49709;BME280;35601;55.902;13.606;2023-04-24T01:34:38;99571.53;;;1.22;75.53
49709;BME280;35601;55.902;13.606;2023-04-24T01:37:05;99567.06;;;1.29;75.50
49709;BME280;35601;55.902;13.606;2023-04-24T01:39:29;99566.45;;;1.33;75.34
49709;BME280;35601;55.902;13.606;2023-04-24T01:41:55;99564.42;;;1.36;75.35
49709;BME280;35601;55.902;13.606;2023-04-24T01:44:19;99562.48;;;1.36;76.09
49709;BME280;35601;55.902;13.606;2023-04-24T01:46:44;99559.54;;;1.14;75.93
49709;BME280;35601;55.902;13.606;2023-04-24T01:49:09;99560.43;;;1.39;76.46
49709;BME280;35601;55.902;13.606;2023-04-24T01:51:35;99563.03;;;1.42;76.84
49709;BME280;35601;55.902;13.606;2023-04-24T01:54:00;99566.32;;;1.47;77.01
49709;BME280;35601;55.902;13.606;2023-04-24T01:56:29;99561.54;;;1.50;76.92
49709;BME280;35601;55.902;13.606;2023-04-24T01:58:52;99558.10;;;1.43;76.78
49709;BME280;35601;55.902;13.606;2023-04-24T02:01:19;99556.86;;;1.31;77.01
49709;BME280;35601;55.902;13.606;2023-04-24T02:03:42;99554.75;;;1.16;77.14
49709;BME280;35601;55.902;13.606;2023-04-24T02:06:07;99551.05;;;1.15;77.04
49709;BME280;35601;55.902;13.606;2023-04-24T02:08:33;99547.13;;;1.18;76.66
49709;BME280;35601;55.902;13.606;2023-04-24T02:10:58;99548.30;;;1.34;75.76
49709;BME280;35601;55.902;13.606;2023-04-24T02:13:23;99543.32;;;1.54;75.11
49709;BME280;35601;55.902;13.606;2023-04-24T02:15:48;99543.29;;;1.35;74.67
49709;BME280;35601;55.902;13.606;2023-04-24T02:18:14;99542.66;;;1.31;75.00
49709;BME280;35601;55.902;13.606;2023-04-24T02:20:39;99541.84;;;1.19;75.72
49709;BME280;35601;55.902;13.606;2023-04-24T02:23:05;99544.35;;;1.40;76.48
49709;BME280;35601;55.902;13.606;2023-04-24T02:25:31;99542.54;;;1.67;76.67
49709;BME280;35601;55.902;13.606;2023-04-24T02:27:56;99541.42;;;1.09;76.60
49709;BME280;35601;55.902;13.606;2023-04-24T02:30:22;99537.49;;;0.92;76.57
49709;BME280;35601;55.902;13.606;2023-04-24T02:32:47;99536.45;;;0.93;76.89
49709;BME280;35601;55.902;13.606;2023-04-24T02:35:12;99538.46;;;1.09;76.67
49709;BME280;35601;55.902;13.606;2023-04-24T02:37:38;99532.21;;;1.03;76.58
49709;BME280;35601;55.902;13.606;2023-04-24T02:40:04;99528.29;;;1.13;76.69
49709;BME280;35601;55.902;13.606;2023-04-24T02:42:29;99529.88;;;0.70;76.82
49709;BME280;35601;55.902;13.606;2023-04-24T02:44:54;99524.25;;;0.62;76.95
49709;BME280;35601;55.902;13.606;2023-04-24T02:47:20;99523.57;;;0.88;77.05
49709;BME280;35601;55.902;13.606;2023-04-24T02:49:45;99530.80;;;0.96;77.42
49709;BME280;35601;55.902;13.606;2023-04-24T02:52:11;99536.99;;;1.06;76.61
49709;BME280;35601;55.902;13.606;2023-04-24T02:54:36;99538.98;;;0.52;76.37
49709;BME280;35601;55.902;13.606;2023-04-24T02:57:02;99542.32;;;0.58;75.99
49709;BME280;35601;55.902;13.606;2023-04-24T02:59:27;99541.63;;;0.92;75.69
49709;BME280;35601;55.902;13.606;2023-04-24T03:01:52;99543.88;;;0.79;75.23
49709;BME280;35601;55.902;13.606;2023-04-24T03:04:18;99545.55;;;0.86;74.87
49709;BME280;35601;55.902;13.606;2023-04-24T03:06:42;99543.45;;;0.76;74.62
49709;BME280;35601;55.902;13.606;2023-04-24T03:09:08;99543.26;;;1.04;73.88
49709;BME280;35601;55.902;13.606;2023-04-24T03:11:34;99541.28;;;0.77;74.41
49709;BME280;35601;55.902;13.606;2023-04-24T03:14:00;99534.32;;;0.99;74.87
49709;BME280;35601;55.902;13.606;2023-04-24T03:16:25;99532.25;;;0.77;74.97
49709;BME280;35601;55.902;13.606;2023-04-24T03:18:51;99530.82;;;0.82;75.38
49709;BME280;35601;55.902;13.606;2023-04-24T03:21:17;99527.61;;;0.81;76.48
49709;BME280;35601;55.902;13.606;2023-04-24T03:23:41;99527.60;;;1.09;76.57
49709;BME280;35601;55.902;13.606;2023-04-24T03:26:07;99518.15;;;1.36;77.87
49709;BME280;35601;55.902;13.606;2023-04-24T03:28:33;99507.17;;;0.95;78.02
49709;BME280;35601;55.902;13.606;2023-04-24T03:30:58;99502.46;;;1.21;78.14
49709;BME280;35601;55.902;13.606;2023-04-24T03:33:23;99492.47;;;1.20;81.30
49709;BME280;35601;55.902;13.606;2023-04-24T03:35:49;99483.45;;;1.23;81.67
49709;BME280;35601;55.902;13.606;2023-04-24T03:38:14;99480.94;;;1.01;83.13
49709;BME280;35601;55.902;13.606;2023-04-24T03:40:40;99481.16;;;1.34;84.69
49709;BME280;35601;55.902;13.606;2023-04-24T03:43:06;99485.08;;;1.59;86.31
49709;BME280;35601;55.902;13.606;2023-04-24T03:45:33;99480.52;;;1.46;86.54
49709;BME280;35601;55.902;13.606;2023-04-24T03:47:58;99475.58;;;1.76;87.32
49709;BME280;35601;55.902;13.606;2023-04-24T03:50:22;99475.26;;;1.82;89.10
49709;BME280;35601;55.902;13.606;2023-04-24T03:52:47;99472.09;;;1.55;89.17
49709;BME280;35601;55.902;13.606;2023-04-24T03:55:13;99473.24;;;1.69;89.74
49709;BME280;35601;55.902;13.606;2023-04-24T03:57:39;99471.94;;;1.69;91.21
49709;BME280;35601;55.902;13.606;2023-04-24T04:00:06;99466.50;;;1.90;91.54
49709;BME280;35601;55.902;13.606;2023-04-24T04:02:30;99468.18;;;2.04;91.54
49709;BME280;35601;55.902;13.606;2023-04-24T04:04:56;99469.91;;;2.29;90.82
49709;BME280;35601;55.902;13.606;2023-04-24T04:07:21;99470.26;;;2.49;90.09
49709;BME280;35601;55.902;13.606;2023-04-24T04:09:46;99472.71;;;2.61;89.81
49709;BME280;35601;55.902;13.606;2023-04-24T04:12:12;99470.66;;;2.46;89.88
49709;BME280;35601;55.902;13.606;2023-04-24T04:14:38;99470.63;;;2.47;90.12
49709;BME280;35601;55.902;13.606;2023-04-24T04:17:03;99470.27;;;2.62;90.61
49709;BME280;35601;55.902;13.606;2023-04-24T04:19:29;99475.60;;;2.99;90.69
49709;BME280;35601;55.902;13.606;2023-04-24T04:21:54;99476.48;;;2.90;90.40
49709;BME280;35601;55.902;13.606;2023-04-24T04:24:19;99483.20;;;2.98;90.48
49709;BME280;35601;55.902;13.606;2023-04-24T04:26:45;99487.25;;;2.87;91.13
49709;BME280;35601;55.902;13.606;2023-04-24T04:29:11;99487.78;;;2.95;91.33
49709;BME280;35601;55.902;13.606;2023-04-24T04:31:35;99484.00;;;3.22;90.62
49709;BME280;35601;55.902;13.606;2023-04-24T04:34:01;99488.08;;;3.20;92.11
49709;BME280;35601;55.902;13.606;2023-04-24T04:36:27;99496.45;;;3.30;91.75
49709;BME280;35601;55.902;13.606;2023-04-24T04:38:52;99488.32;;;3.70;91.38
49709;BME280;35601;55.902;13.606;2023-04-24T04:41:17;99483.07;;;3.61;91.12
49709;BME280;35601;55.902;13.606;2023-04-24T04:43:44;99474.35;;;2.50;91.68
49709;BME280;35601;55.902;13.606;2023-04-24T04:46:08;99465.87;;;3.69;91.04
49709;BME280;35601;55.902;13.606;2023-04-24T04:48:33;99457.06;;;3.54;91.37
49709;BME280;35601;55.902;13.606;2023-04-24T04:50:58;99450.30;;;3.83;91.72
49709;BME280;35601;55.902;13.606;2023-04-24T04:53:24;99435.07;;;4.15;91.14
49709;BME280;35601;55.902;13.606;2023-04-24T04:55:51;99426.49;;;3.93;89.79
49709;BME280;35601;55.902;13.606;2023-04-24T04:58:16;99419.78;;;4.15;89.09
49709;BME280;35601;55.902;13.606;2023-04-24T05:00:40;99418.49;;;4.30;89.20
49709;BME280;35601;55.902;13.606;2023-04-24T05:03:06;99413.64;;;4.36;89.12
49709;BME280;35601;55.902;13.606;2023-04-24T05:05:33;99408.47;;;4.03;89.81
49709;BME280;35601;55.902;13.606;2023-04-24T05:07:57;99406.65;;;4.20;90.16
49709;BME280;35601;55.902;13.606;2023-04-24T05:10:22;99401.46;;;4.17;90.44
49709;BME280;35601;55.902;13.606;2023-04-24T05:12:48;99400.16;;;4.95;90.53
49709;BME280;35601;55.902;13.606;2023-04-24T05:15:15;99406.07;;;4.29;91.52
49709;BME280;35601;55.902;13.606;2023-04-24T05:17:39;99411.36;;;4.67;91.73
49709;BME280;35601;55.902;13.606;2023-04-24T05:20:05;99409.50;;;4.66;91.45
49709;BME280;35601;55.902;13.606;2023-04-24T05:22:29;99404.42;;;4.88;91.93
49709;BME280;35601;55.902;13.606;2023-04-24T05:24:55;99398.55;;;4.93;90.82
49709;BME280;35601;55.902;13.606;2023-04-24T05:27:21;99394.83;;;5.39;89.77
49709;BME280;35601;55.902;13.606;2023-04-24T05:29:47;99395.60;;;5.33;88.41
49709;BME280;35601;55.902;13.606;2023-04-24T05:32:14;99396.29;;;5.41;89.87
49709;BME280;35601;55.902;13.606;2023-04-24T05:34:38;99396.10;;;5.59;87.17
49709;BME280;35601;55.902;13.606;2023-04-24T05:37:04;99393.68;;;6.11;86.55
49709;BME280;35601;55.902;13.606;2023-04-24T05:39:30;99395.11;;;6.13;84.92
49709;BME280;35601;55.902;13.606;2023-04-24T05:41:57;99399.41;;;6.54;82.82
49709;BME280;35601;55.902;13.606;2023-04-24T05:44:21;99397.48;;;6.74;81.11
49709;BME280;35601;55.902;13.606;2023-04-24T05:46:47;99393.37;;;6.65;81.98
49709;BME280;35601;55.902;13.606;2023-04-24T05:49:13;99399.04;;;7.04;81.26
49709;BME280;35601;55.902;13.606;2023-04-24T05:51:38;99402.14;;;6.91;79.40
49709;BME280;35601;55.902;13.606;2023-04-24T05:54:03;99407.98;;;7.25;78.70
49709;BME280;35601;55.902;13.606;2023-04-24T05:56:29;99408.60;;;7.33;74.94
49709;BME280;35601;55.902;13.606;2023-04-24T05:58:54;99404.30;;;7.41;74.99
49709;BME280;35601;55.902;13.606;2023-04-24T06:01:20;99401.28;;;7.86;72.76
49709;BME280;35601;55.902;13.606;2023-04-24T06:03:45;99398.82;;;8.00;73.14
49709;BME280;35601;55.902;13.606;2023-04-24T06:06:11;99400.09;;;8.22;74.67
49709;BME280;35601;55.902;13.606;2023-04-24T06:08:37;99398.12;;;7.78;71.71
49709;BME280;35601;55.902;13.606;2023-04-24T06:11:03;99397.96;;;8.38;71.67
49709;BME280;35601;55.902;13.606;2023-04-24T06:13:28;99400.48;;;8.04;70.61
49709;BME280;35601;55.902;13.606;2023-04-24T06:15:54;99401.00;;;7.69;72.50
49709;BME280;35601;55.902;13.606;2023-04-24T06:18:20;99397.81;;;7.43;72.07
49709;BME280;35601;55.902;13.606;2023-04-24T06:20:45;99397.80;;;7.81;71.95
49709;BME280;35601;55.902;13.606;2023-04-24T06:23:11;99397.45;;;7.77;70.50
49709;BME280;35601;55.902;13.606;2023-04-24T06:25:36;99390.78;;;7.83;70.11
49709;BME280;35601;55.902;13.606;2023-04-24T06:28:01;99385.13;;;7.93;69.65
49709;BME280;35601;55.902;13.606;2023-04-24T06:30:27;99380.16;;;8.23;70.48
49709;BME280;35601;55.902;13.606;2023-04-24T06:32:52;99378.48;;;8.35;70.31
49709;BME280;35601;55.902;13.606;2023-04-24T06:35:18;99366.44;;;7.69;68.28
49709;BME280;35601;55.902;13.606;2023-04-24T06:37:43;99375.17;;;7.88;68.06
49709;BME280;35601;55.902;13.606;2023-04-24T06:40:10;99377.70;;;8.26;67.57
49709;BME280;35601;55.902;13.606;2023-04-24T06:42:34;99384.34;;;8.27;68.54
49709;BME280;35601;55.902;13.606;2023-04-24T06:45:02;99389.55;;;8.58;66.38
49709;BME280;35601;55.902;13.606;2023-04-24T06:47:26;99399.03;;;8.32;65.77
49709;BME280;35601;55.902;13.606;2023-04-24T06:49:53;99396.04;;;8.90;65.17
49709;BME280;35601;55.902;13.606;2023-04-24T06:52:17;99396.27;;;8.97;64.19
49709;BME280;35601;55.902;13.606;2023-04-24T06:54:44;99399.56;;;8.92;62.07
49709;BME280;35601;55.902;13.606;2023-04-24T06:57:09;99398.81;;;9.35;62.53
49709;BME280;35601;55.902;13.606;2023-04-24T06:59:34;99388.30;;;8.76;61.45
49709;BME280;35601;55.902;13.606;2023-04-24T07:01:59;99387.14;;;8.98;61.68
49709;BME280;35601;55.902;13.606;2023-04-24T07:04:24;99387.11;;;8.60;61.19
49709;BME280;35601;55.902;13.606;2023-04-24T07:06:50;99384.31;;;8.89;63.14
49709;BME280;35601;55.902;13.606;2023-04-24T07:09:15;99391.84;;;8.67;63.33
49709;BME280;35601;55.902;13.606;2023-04-24T07:11:41;99392.91;;;8.80;64.84
49709;BME280;35601;55.902;13.606;2023-04-24T07:14:07;99387.53;;;8.16;65.67
49709;BME280;35601;55.902;13.606;2023-04-24T07:16:33;99391.18;;;8.06;66.57
49709;BME280;35601;55.902;13.606;2023-04-24T07:18:58;99399.06;;;8.59;65.45
49709;BME280;35601;55.902;13.606;2023-04-24T07:21:23;99401.62;;;8.33;66.82
49709;BME280;35601;55.902;13.606;2023-04-24T07:23:50;99402.96;;;8.34;65.87
49709;BME280;35601;55.902;13.606;2023-04-24T07:26:15;99400.23;;;8.69;66.35
49709;BME280;35601;55.902;13.606;2023-04-24T07:28:40;99403.35;;;8.47;66.31
49709;BME280;35601;55.902;13.606;2023-04-24T07:31:06;99404.58;;;8.47;67.23
49709;BME280;35601;55.902;13.606;2023-04-24T07:33:32;99411.73;;;8.35;66.68
49709;BME280;35601;55.902;13.606;2023-04-24T07:35:57;99402.04;;;8.73;67.70
49709;BME280;35601;55.902;13.606;2023-04-24T07:38:23;99395.07;;;9.18;65.41
49709;BME280;35601;55.902;13.606;2023-04-24T07:40:49;99397.43;;;8.57;67.51
49709;BME280;35601;55.902;13.606;2023-04-24T07:43:14;99398.91;;;8.88;66.85
49709;BME280;35601;55.902;13.606;2023-04-24T07:45:40;99394.16;;;9.02;68.09
49709;BME280;35601;55.902;13.606;2023-04-24T07:48:05;99393.42;;;9.10;67.40
49709;BME280;35601;55.902;13.606;2023-04-24T07:50:33;99402.81;;;9.32;66.14
49709;BME280;35601;55.902;13.606;2023-04-24T07:52:56;99402.13;;;9.61;65.90
49709;BME280;35601;55.902;13.606;2023-04-24T07:55:22;99404.15;;;9.08;66.62
49709;BME280;35601;55.902;13.606;2023-04-24T07:57:47;99405.34;;;9.10;69.05
49709;BME280;35601;55.902;13.606;2023-04-24T08:00:13;99398.63;;;9.74;66.42
49709;BME280;35601;55.902;13.606;2023-04-24T08:02:37;99398.30;;;9.75;66.56
49709;BME280;35601;55.902;13.606;2023-04-24T08:05:05;99394.67;;;9.85;66.87
49709;BME280;35601;55.902;13.606;2023-04-24T08:07:29;99390.15;;;9.83;67.33
49709;BME280;35601;55.902;13.606;2023-04-24T08:09:55;99392.25;;;9.46;66.46
49709;BME280;35601;55.902;13.606;2023-04-24T08:12:20;99390.48;;;9.29;68.51
49709;BME280;35601;55.902;13.606;2023-04-24T08:14:46;99385.09;;;9.37;68.97
49709;BME280;35601;55.902;13.606;2023-04-24T08:17:13;99391.50;;;9.47;67.78
49709;BME280;35601;55.902;13.606;2023-04-24T08:19:36;99394.11;;;9.68;67.05
49709;BME280;35601;55.902;13.606;2023-04-24T08:22:02;99403.06;;;9.58;68.71
49709;BME280;35601;55.902;13.606;2023-04-24T08:24:27;99413.22;;;9.16;70.01
49709;BME280;35601;55.902;13.606;2023-04-24T08:26:52;99406.10;;;9.14;70.03
49709;BME280;35601;55.902;13.606;2023-04-24T08:29:18;99404.52;;;9.78;68.90
49709;BME280;35601;55.902;13.606;2023-04-24T08:31:43;99408.28;;;9.35;70.09
49709;BME280;35601;55.902;13.606;2023-04-24T08:34:09;99412.02;;;9.55;69.20
49709;BME280;35601;55.902;13.606;2023-04-24T08:36:34;99408.29;;;9.76;68.91
49709;BME280;35601;55.902;13.606;2023-04-24T08:39:01;99398.24;;;9.62;69.21
49709;BME280;35601;55.902;13.606;2023-04-24T08:41:27;99395.76;;;9.81;69.27
49709;BME280;35601;55.902;13.606;2023-04-24T08:43:51;99390.90;;;10.00;68.96
49709;BME280;35601;55.902;13.606;2023-04-24T08:46:19;99371.73;;;9.49;67.51
49709;BME280;35601;55.902;13.606;2023-04-24T08:48:43;99365.82;;;10.00;66.58
49709;BME280;35601;55.902;13.606;2023-04-24T08:51:08;99355.55;;;10.36;66.63
49709;BME280;35601;55.902;13.606;2023-04-24T08:53:33;99348.04;;;10.19;64.38
49709;BME280;35601;55.902;13.606;2023-04-24T08:55:58;99339.49;;;9.73;65.07
49709;BME280;35601;55.902;13.606;2023-04-24T08:58:25;99346.38;;;10.27;65.26
49709;BME280;35601;55.902;13.606;2023-04-24T09:00:49;99344.06;;;9.46;66.05
49709;BME280;35601;55.902;13.606;2023-04-24T09:03:15;99333.40;;;9.20;65.43
49709;BME280;35601;55.902;13.606;2023-04-24T09:05:39;99326.58;;;9.41;66.27
49709;BME280;35601;55.902;13.606;2023-04-24T09:08:06;99325.31;;;9.40;66.68
49709;BME280;35601;55.902;13.606;2023-04-24T09:10:31;99321.02;;;9.43;66.61
49709;BME280;35601;55.902;13.606;2023-04-24T09:12:55;99321.88;;;9.17;67.60
49709;BME280;35601;55.902;13.606;2023-04-24T09:15:21;99322.71;;;9.43;67.93
49709;BME280;35601;55.902;13.606;2023-04-24T09:17:46;99321.56;;;9.50;66.44
49709;BME280;35601;55.902;13.606;2023-04-24T09:20:11;99326.49;;;9.64;65.80
49709;BME280;35601;55.902;13.606;2023-04-24T09:22:37;99321.70;;;9.66;65.68
49709;BME280;35601;55.902;13.606;2023-04-24T09:25:03;99320.33;;;9.35;67.16
49709;BME280;35601;55.902;13.606;2023-04-24T09:27:28;99312.87;;;9.45;66.15
49709;BME280;35601;55.902;13.606;2023-04-24T09:29:54;99307.30;;;9.08;67.37
49709;BME280;35601;55.902;13.606;2023-04-24T09:32:20;99302.03;;;9.25;68.16
49709;BME280;35601;55.902;13.606;2023-04-24T09:34:47;99313.97;;;9.21;71.87
49709;BME280;35601;55.902;13.606;2023-04-24T09:37:11;99314.45;;;9.15;71.84
49709;BME280;35601;55.902;13.606;2023-04-24T09:39:36;99314.18;;;9.02;73.10
49709;BME280;35601;55.902;13.606;2023-04-24T09:42:01;99307.89;;;9.16;72.84
49709;BME280;35601;55.902;13.606;2023-04-24T09:44:28;99310.81;;;8.65;73.98
49709;BME280;35601;55.902;13.606;2023-04-24T09:46:53;99309.52;;;9.05;75.32
49709;BME280;35601;55.902;13.606;2023-04-24T09:49:22;99305.90;;;9.00;76.04
49709;BME280;35601;55.902;13.606;2023-04-24T09:51:43;99301.26;;;8.91;76.77
49709;BME280;35601;55.902;13.606;2023-04-24T09:54:14;99294.50;;;9.00;77.09
49709;BME280;35601;55.902;13.606;2023-04-24T09:56:35;99296.70;;;8.75;75.64
49709;BME280;35601;55.902;13.606;2023-04-24T09:59:04;99293.64;;;8.98;76.34
49709;BME280;35601;55.902;13.606;2023-04-24T10:01:30;99289.51;;;9.02;76.52
49709;BME280;35601;55.902;13.606;2023-04-24T10:03:49;99286.98;;;9.28;75.89
49709;BME280;35601;55.902;13.606;2023-04-24T10:06:16;99287.72;;;9.39;74.60
49709;BME280;35601;55.902;13.606;2023-04-24T10:08:40;99290.77;;;9.41;73.05
49709;BME280;35601;55.902;13.606;2023-04-24T10:11:06;99297.09;;;9.49;72.14
49709;BME280;35601;55.902;13.606;2023-04-24T10:13:31;99295.23;;;9.57;71.64
49709;BME280;35601;55.902;13.606;2023-04-24T10:15:56;99295.74;;;9.12;71.53
49709;BME280;35601;55.902;13.606;2023-04-24T10:18:21;99290.78;;;9.29;71.25
49709;BME280;35601;55.902;13.606;2023-04-24T10:20:47;99293.43;;;9.63;70.46
49709;BME280;35601;55.902;13.606;2023-04-24T10:23:14;99295.07;;;9.65;70.35
49709;BME280;35601;55.902;13.606;2023-04-24T10:25:39;99290.53;;;9.48;68.86
49709;BME280;35601;55.902;13.606;2023-04-24T10:28:03;99296.17;;;9.54;68.48
49709;BME280;35601;55.902;13.606;2023-04-24T10:30:29;99296.30;;;9.36;67.70
49709;BME280;35601;55.902;13.606;2023-04-24T10:32:54;99297.46;;;9.38;68.83
49709;BME280;35601;55.902;13.606;2023-04-24T10:35:19;99302.53;;;9.66;68.49
49709;BME280;35601;55.902;13.606;2023-04-24T10:37:48;99301.77;;;9.66;67.95
49709;BME280;35601;55.902;13.606;2023-04-24T10:40:17;99301.63;;;9.29;69.32
49709;BME280;35601;55.902;13.606;2023-04-24T10:42:36;99301.66;;;9.39;67.86
49709;BME280;35601;55.902;13.606;2023-04-24T10:45:06;99302.38;;;9.68;68.67
49709;BME280;35601;55.902;13.606;2023-04-24T10:47:26;99305.97;;;9.70;68.47
49709;BME280;35601;55.902;13.606;2023-04-24T10:49:52;99304.03;;;9.72;68.83
49709;BME280;35601;55.902;13.606;2023-04-24T10:52:17;99313.69;;;9.34;71.12
49709;BME280;35601;55.902;13.606;2023-04-24T10:54:44;99319.23;;;9.00;69.81
49709;BME280;35601;55.902;13.606;2023-04-24T10:57:28;99323.09;;;8.89;71.78
49709;BME280;35601;55.902;13.606;2023-04-24T10:59:35;99331.25;;;9.21;71.35
49709;BME280;35601;55.902;13.606;2023-04-24T11:01:58;99340.28;;;9.09;71.00
49709;BME280;35601;55.902;13.606;2023-04-24T11:04:31;99341.28;;;9.08;72.11
49709;BME280;35601;55.902;13.606;2023-04-24T11:06:53;99343.00;;;9.04;70.78
49709;BME280;35601;55.902;13.606;2023-04-24T11:09:15;99339.91;;;9.15;69.43
49709;BME280;35601;55.902;13.606;2023-04-24T11:11:45;99338.26;;;9.15;67.98
49709;BME280;35601;55.902;13.606;2023-04-24T11:14:07;99346.55;;;8.83;69.51
49709;BME280;35601;55.902;13.606;2023-04-24T11:16:31;99349.69;;;9.07;69.39
49709;BME280;35601;55.902;13.606;2023-04-24T11:19:01;99350.81;;;8.67;67.16
49709;BME280;35601;55.902;13.606;2023-04-24T11:21:22;99355.07;;;8.59;68.00
49709;BME280;35601;55.902;13.606;2023-04-24T11:23:48;99354.63;;;8.37;68.48
49709;BME280;35601;55.902;13.606;2023-04-24T11:26:17;99352.85;;;8.45;68.33
49709;BME280;35601;55.902;13.606;2023-04-24T11:28:44;99345.34;;;8.30;67.67
49709;BME280;35601;55.902;13.606;2023-04-24T11:33:28;99342.39;;;8.72;67.81
49709;BME280;35601;55.902;13.606;2023-04-24T11:35:54;99339.70;;;8.56;67.96
49709;BME280;35601;55.902;13.606;2023-04-24T11:38:19;99341.51;;;8.65;62.88
49709;BME280;35601;55.902;13.606;2023-04-24T11:40:45;99343.15;;;8.68;62.37
49709;BME280;35601;55.902;13.606;2023-04-24T11:43:10;99347.68;;;8.26;60.70
49709;BME280;35601;55.902;13.606;2023-04-24T11:45:36;99351.81;;;8.58;61.04
49709;BME280;35601;55.902;13.606;2023-04-24T11:48:03;99351.83;;;8.78;61.34
49709;BME280;35601;55.902;13.606;2023-04-24T11:50:27;99349.27;;;8.60;62.07
49709;BME280;35601;55.902;13.606;2023-04-24T11:52:53;99344.69;;;8.60;62.21
49709;BME280;35601;55.902;13.606;2023-04-24T11:55:26;99347.52;;;8.17;63.11
49709;BME280;35601;55.902;13.606;2023-04-24T11:57:45;99350.95;;;8.68;63.89
49709;BME280;35601;55.902;13.606;2023-04-24T12:00:15;99345.34;;;8.73;64.67
49709;BME280;35601;55.902;13.606;2023-04-24T12:02:34;99340.53;;;8.85;65.06
49709;BME280;35601;55.902;13.606;2023-04-24T12:05:06;99343.10;;;9.00;66.11
49709;BME280;35601;55.902;13.606;2023-04-24T12:07:26;99340.18;;;8.87;66.86
49709;BME280;35601;55.902;13.606;2023-04-24T12:09:57;99330.03;;;9.12;65.95
49709;BME280;35601;55.902;13.606;2023-04-24T12:12:19;99331.67;;;9.42;65.09
49709;BME280;35601;55.902;13.606;2023-04-24T12:14:45;99327.31;;;9.10;65.65
49709;BME280;35601;55.902;13.606;2023-04-24T12:17:07;99326.63;;;8.90;65.60
49709;BME280;35601;55.902;13.606;2023-04-24T12:19:33;99331.04;;;9.48;65.15
49709;BME280;35601;55.902;13.606;2023-04-24T12:22:00;99334.82;;;9.27;65.15
49709;BME280;35601;55.902;13.606;2023-04-24T12:24:25;99331.42;;;9.18;66.04
49709;BME280;35601;55.902;13.606;2023-04-24T12:26:51;99331.79;;;9.34;65.75
49709;BME280;35601;55.902;13.606;2023-04-24T12:29:20;99333.07;;;9.09;66.93
49709;BME280;35601;55.902;13.606;2023-04-24T12:31:42;99331.66;;;9.11;68.66
49709;BME280;35601;55.902;13.606;2023-04-24T12:36:35;99319.05;;;10.05;67.25
49709;BME280;35601;55.902;13.606;2023-04-24T12:38:58;99318.65;;;10.19;66.22
49709;BME280;35601;55.902;13.606;2023-04-24T12:41:23;99321.36;;;9.94;65.47
49709;BME280;35601;55.902;13.606;2023-04-24T12:43:52;99320.08;;;10.01;66.33
49709;BME280;35601;55.902;13.606;2023-04-24T12:46:14;99316.90;;;10.22;65.26
49709;BME280;35601;55.902;13.606;2023-04-24T12:48:39;99321.08;;;9.96;66.17
49709;BME280;35601;55.902;13.606;2023-04-24T12:51:05;99324.71;;;10.17;66.72
49709;BME280;35601;55.902;13.606;2023-04-24T12:53:30;99322.50;;;9.29;70.22